Time;durP1;ratioP1;P1;durP2;ratioP2;P2;SDS_P1;SDS_P2;PMS_P1;PMS_P2;Temp;Humidity;BMP_temperature;BMP_pressure;BME280_temperature;BME280_humidity;BME280_pressure;Samples;Min_cycle;Max_cycle;Signal;HPM_P1;HPM_P2
2021/10/23 00:02:26;;;;;;;5.37;1.60;;;8.00;99.90;;;;;;4964096;28;20819;-67
2021/10/23 00:04:55;;;;;;;4.70;1.40;;;7.90;99.90;;;;;;4965520;28;21228;-67
2021/10/23 00:07:21;;;;;;;6.90;1.50;;;7.90;99.90;;;;;;4965581;28;20705;-67
2021/10/23 00:09:46;;;;;;;6.43;1.80;;;7.90;99.90;;;;;;4966545;28;20744;-67
2021/10/23 00:12:14;;;;;;;6.13;1.60;;;7.90;99.90;;;;;;4963848;28;20227;-67
2021/10/23 00:14:40;;;;;;;3.87;1.50;;;7.90;99.90;;;;;;4968530;28;20188;-67
2021/10/23 00:17:11;;;;;;;5.57;2.10;;;7.90;99.90;;;;;;4963760;28;20652;-67
2021/10/23 00:19:36;;;;;;;4.53;2.00;;;7.90;99.90;;;;;;4964584;28;20235;-67
2021/10/23 00:22:05;;;;;;;6.90;2.20;;;7.90;99.90;;;;;;4967457;28;20658;-67
2021/10/23 00:24:32;;;;;;;5.37;1.77;;;7.90;99.90;;;;;;4967360;28;20183;-67
2021/10/23 00:27:01;;;;;;;4.83;1.93;;;7.90;99.90;;;;;;4965145;28;20675;-67
2021/10/23 00:29:27;;;;;;;6.07;1.60;;;7.80;99.90;;;;;;4963606;28;20650;-67
2021/10/23 00:31:55;;;;;;;3.00;1.77;;;7.80;99.90;;;;;;4965090;28;21410;-67
2021/10/23 00:34:23;;;;;;;10.07;1.80;;;7.80;99.90;;;;;;4966586;28;20641;-67
2021/10/23 00:36:57;;;;;;;5.97;1.60;;;7.80;99.90;;;;;;4967969;28;20622;-67
2021/10/23 00:39:27;;;;;;;7.63;2.13;;;7.80;99.90;;;;;;4971236;28;20641;-67
2021/10/23 00:41:55;;;;;;;3.33;1.67;;;7.80;99.90;;;;;;4969709;28;20641;-67
2021/10/23 00:44:31;;;;;;;5.90;1.90;;;7.80;99.90;;;;;;4970968;28;21248;-67
2021/10/23 00:47:07;;;;;;;9.87;2.47;;;7.80;99.90;;;;;;4970306;28;20633;-67
2021/10/23 00:49:34;;;;;;;6.37;1.57;;;7.80;99.90;;;;;;4971993;28;20649;-67
2021/10/23 00:52:06;;;;;;;5.37;3.10;;;7.80;99.90;;;;;;4968287;28;21001;-67
2021/10/23 00:54:33;;;;;;;4.30;1.50;;;7.80;99.90;;;;;;4969900;28;20614;-67
2021/10/23 00:57:00;;;;;;;5.57;1.73;;;7.80;99.90;;;;;;4970192;28;21165;-67
2021/10/23 00:59:33;;;;;;;3.10;1.63;;;7.80;99.90;;;;;;4963800;28;20653;-67
2021/10/23 01:02:00;;;;;;;3.87;1.67;;;7.70;99.90;;;;;;4965575;28;20829;-67
2021/10/23 01:04:26;;;;;;;8.00;1.83;;;7.70;99.90;;;;;;4968775;28;21149;-67
2021/10/23 01:07:02;;;;;;;3.93;1.70;;;7.80;99.90;;;;;;4970019;28;20701;-67
2021/10/23 01:09:28;;;;;;;3.10;1.40;;;7.70;99.90;;;;;;4967665;28;20665;-67
2021/10/23 01:11:54;;;;;;;5.83;1.90;;;7.70;99.90;;;;;;4971417;28;20634;-67
2021/10/23 01:14:25;;;;;;;7.20;1.70;;;7.90;99.90;;;;;;4968403;28;22836;-67
2021/10/23 01:16:57;;;;;;;4.20;1.50;;;7.70;99.90;;;;;;4967115;28;20635;-68
2021/10/23 01:19:23;;;;;;;5.80;1.70;;;7.70;99.90;;;;;;4967097;28;20724;-67
2021/10/23 01:21:58;;;;;;;5.53;1.67;;;7.70;99.90;;;;;;4967951;28;20784;-67
2021/10/23 01:24:24;;;;;;;3.67;1.30;;;7.70;99.90;;;;;;4971156;28;21220;-67
2021/10/23 01:26:53;;;;;;;3.70;1.90;;;7.70;99.90;;;;;;4967278;28;20665;-66
2021/10/23 01:29:20;;;;;;;5.60;1.83;;;7.70;99.90;;;;;;4969363;28;20653;-67
2021/10/23 01:31:50;;;;;;;5.20;1.67;;;7.70;99.90;;;;;;4968014;28;21224;-67
2021/10/23 01:34:21;;;;;;;3.53;1.93;;;7.70;99.90;;;;;;4967191;28;20618;-67
2021/10/23 01:36:52;;;;;;;7.97;1.90;;;7.70;99.90;;;;;;4970030;28;21193;-67
2021/10/23 01:39:18;;;;;;;5.20;1.57;;;7.70;99.90;;;;;;4952960;28;21211;-67
2021/10/23 01:41:46;;;;;;;4.33;1.47;;;7.70;99.90;;;;;;4971010;28;20638;-67
2021/10/23 01:44:14;;;;;;;5.37;1.57;;;7.70;99.90;;;;;;4966255;28;20614;-66
2021/10/23 01:46:42;;;;;;;5.57;1.67;;;7.70;99.90;;;;;;4966392;28;21236;-66
2021/10/23 01:49:09;;;;;;;4.90;1.70;;;7.70;99.90;;;;;;4968787;28;21069;-67
2021/10/23 01:51:44;;;;;;;3.20;1.43;;;7.70;99.90;;;;;;4967883;28;20638;-66
2021/10/23 01:54:19;;;;;;;2.23;1.97;;;7.80;99.90;;;;;;4969583;28;20636;-66
2021/10/23 01:56:47;;;;;;;3.43;1.60;;;7.70;99.90;;;;;;4969691;28;20784;-67
2021/10/23 01:59:16;;;;;;;5.20;1.60;;;7.80;99.90;;;;;;4967421;28;20657;-67
2021/10/23 02:01:47;;;;;;;5.70;1.33;;;8.00;99.90;;;;;;4950231;28;20638;-66
2021/10/23 02:04:13;;;;;;;7.37;1.67;;;7.80;99.90;;;;;;4966375;28;20695;-66
2021/10/23 02:06:44;;;;;;;6.63;1.60;;;7.80;99.90;;;;;;4967549;28;21123;-67
2021/10/23 02:09:09;;;;;;;5.03;1.40;;;7.80;99.90;;;;;;4974199;28;20214;-67
2021/10/23 02:11:37;;;;;;;8.83;2.00;;;7.90;99.90;;;;;;4976994;28;20630;-67
2021/10/23 02:14:10;;;;;;;2.70;1.40;;;7.90;99.90;;;;;;4961718;28;20191;-66
2021/10/23 02:16:39;;;;;;;8.27;1.60;;;7.90;99.90;;;;;;4968226;28;21428;-66
2021/10/23 02:19:04;;;;;;;7.17;2.17;;;7.90;99.90;;;;;;4968167;28;20656;-67
2021/10/23 02:21:37;;;;;;;8.53;1.67;;;7.90;99.90;;;;;;4966742;28;20732;-67
2021/10/23 02:24:10;;;;;;;7.13;2.07;;;7.90;99.90;;;;;;4968074;28;20198;-68
2021/10/23 02:26:36;;;;;;;3.83;1.87;;;7.90;99.90;;;;;;4968399;28;20689;-67
2021/10/23 02:29:02;;;;;;;4.80;1.63;;;7.90;99.90;;;;;;4968186;28;22797;-67
2021/10/23 02:31:27;;;;;;;6.57;1.63;;;7.90;99.90;;;;;;4968164;28;20234;-67
2021/10/23 02:34:02;;;;;;;5.37;1.77;;;7.90;99.90;;;;;;4970011;28;20195;-71
2021/10/23 02:36:27;;;;;;;3.80;1.57;;;7.90;99.90;;;;;;4968814;28;20194;-66
2021/10/23 02:38:58;;;;;;;5.83;2.00;;;7.90;99.90;;;;;;4968745;28;20696;-67
2021/10/23 02:41:25;;;;;;;2.70;1.60;;;7.90;99.90;;;;;;4951146;28;20727;-66
2021/10/23 02:43:54;;;;;;;4.73;1.50;;;7.90;99.90;;;;;;4968351;28;20936;-67
2021/10/23 02:46:22;;;;;;;5.40;1.63;;;7.90;99.90;;;;;;4968259;28;20657;-72
2021/10/23 02:48:50;;;;;;;5.40;1.43;;;8.00;99.90;;;;;;4966585;28;20653;-66
2021/10/23 02:51:18;;;;;;;5.77;1.80;;;8.00;99.90;;;;;;4968872;28;20649;-67
2021/10/23 02:54:04;;;;;;;7.57;1.87;;;8.00;99.90;;;;;;4968246;28;20606;-67
2021/10/23 02:56:30;;;;;;;5.60;1.53;;;8.00;99.90;;;;;;4965590;28;20595;-67
2021/10/23 02:59:03;;;;;;;3.03;1.17;;;8.00;99.90;;;;;;4965629;28;21253;-67
2021/10/23 03:01:31;;;;;;;6.30;1.40;;;8.10;99.90;;;;;;4962731;28;20265;-66
2021/10/23 03:03:57;;;;;;;5.83;2.00;;;8.10;99.90;;;;;;4965728;28;20622;-67
2021/10/23 03:06:25;;;;;;;3.03;1.20;;;8.10;99.90;;;;;;4952433;28;20650;-67
2021/10/23 03:08:53;;;;;;;4.60;1.70;;;8.10;99.90;;;;;;4971359;28;21437;-67
2021/10/23 03:11:19;;;;;;;5.90;1.70;;;8.10;99.90;;;;;;4971514;28;20738;-67
2021/10/23 03:13:56;;;;;;;5.37;1.50;;;8.20;99.90;;;;;;4965411;28;20709;-65
2021/10/23 03:16:21;;;;;;;3.93;1.60;;;8.20;99.90;;;;;;4967968;28;20626;-67
2021/10/23 03:18:51;;;;;;;4.80;1.10;;;8.20;99.90;;;;;;4965981;28;20749;-66
2021/10/23 03:21:22;;;;;;;4.60;1.57;;;8.20;99.90;;;;;;4963893;28;20597;-66
2021/10/23 03:23:47;;;;;;;7.00;1.50;;;8.20;99.90;;;;;;4963490;28;20657;-66
2021/10/23 03:26:18;;;;;;;4.53;1.60;;;8.20;99.90;;;;;;4964161;28;21060;-67
2021/10/23 03:28:46;;;;;;;3.67;1.10;;;8.20;99.90;;;;;;4961623;28;20322;-66
2021/10/23 03:31:16;;;;;;;5.87;1.50;;;8.20;99.90;;;;;;4965423;28;20718;-67
2021/10/23 03:33:51;;;;;;;5.03;1.80;;;8.20;99.90;;;;;;4964892;28;20710;-66
2021/10/23 03:36:17;;;;;;;8.97;2.30;;;8.20;99.90;;;;;;4967008;28;20664;-65
2021/10/23 03:38:45;;;;;;;3.73;1.50;;;8.20;99.90;;;;;;4966035;28;20641;-66
2021/10/23 03:41:13;;;;;;;8.80;2.07;;;8.20;99.90;;;;;;4966288;28;20223;-65
2021/10/23 03:43:43;;;;;;;6.83;1.80;;;8.20;99.90;;;;;;4946657;28;20768;-64
2021/10/23 03:46:18;;;;;;;3.03;1.53;;;8.20;99.90;;;;;;4964515;28;20928;-64
2021/10/23 03:48:44;;;;;;;4.13;1.77;;;8.20;99.90;;;;;;4966118;28;20957;-65
2021/10/23 03:51:09;;;;;;;3.17;1.40;;;8.20;99.90;;;;;;4966274;28;20637;-65
2021/10/23 03:53:48;;;;;;;6.80;1.47;;;8.20;99.90;;;;;;4965695;28;20187;-65
2021/10/23 03:56:13;;;;;;;5.83;1.77;;;8.20;99.90;;;;;;4965444;28;20217;-64
2021/10/23 03:58:39;;;;;;;4.63;1.70;;;8.10;99.90;;;;;;4945697;28;20662;-66
2021/10/23 04:01:14;;;;;;;5.33;1.27;;;8.20;99.90;;;;;;4961890;28;20222;-65
2021/10/23 04:03:47;;;;;;;3.33;1.43;;;8.20;99.90;;;;;;4947376;28;20200;-64
2021/10/23 04:06:14;;;;;;;5.63;1.73;;;8.20;99.90;;;;;;4965103;28;20658;-64
2021/10/23 04:09:03;;;;;;;3.73;1.60;;;8.20;99.90;;;;;;4964568;28;21099;-64
2021/10/23 04:11:31;;;;;;;6.07;1.70;;;8.10;99.90;;;;;;4965933;28;20654;-65
2021/10/23 04:13:59;;;;;;;3.77;2.17;;;8.20;99.90;;;;;;4966571;28;20621;-66
2021/10/23 04:16:29;;;;;;;5.77;1.30;;;8.20;99.90;;;;;;4964085;28;21240;-66
2021/10/23 04:18:57;;;;;;;4.50;1.67;;;8.20;99.90;;;;;;4968442;28;20634;-66
2021/10/23 04:21:24;;;;;;;3.33;1.77;;;8.20;99.90;;;;;;4967495;28;20634;-66
2021/10/23 04:23:52;;;;;;;4.93;2.10;;;8.20;99.90;;;;;;4966549;28;20594;-66
2021/10/23 04:26:18;;;;;;;4.40;1.87;;;8.20;99.90;;;;;;4964474;28;20677;-66
2021/10/23 04:28:44;;;;;;;4.73;1.53;;;8.20;99.90;;;;;;4964609;28;20704;-66
2021/10/23 04:31:10;;;;;;;2.90;1.60;;;8.20;99.90;;;;;;4965567;28;21240;-66
2021/10/23 04:33:36;;;;;;;4.33;1.57;;;8.10;99.90;;;;;;4963397;28;20191;-67
2021/10/23 04:36:03;;;;;;;2.97;1.43;;;8.20;99.90;;;;;;4964685;28;20191;-65
2021/10/23 04:38:29;;;;;;;5.17;1.60;;;8.10;99.90;;;;;;4965251;28;20654;-66
2021/10/23 04:40:59;;;;;;;3.83;1.50;;;8.10;99.90;;;;;;4963414;28;20637;-66
2021/10/23 04:43:25;;;;;;;4.90;1.90;;;8.10;99.90;;;;;;4964345;28;20563;-67
2021/10/23 04:45:51;;;;;;;6.33;1.60;;;8.10;99.90;;;;;;4963870;28;20650;-64
2021/10/23 04:48:21;;;;;;;4.90;1.50;;;8.20;99.90;;;;;;4967443;28;20209;-66
2021/10/23 04:50:51;;;;;;;5.80;1.90;;;8.10;99.90;;;;;;4964622;28;20249;-66
2021/10/23 04:53:17;;;;;;;5.33;2.47;;;8.10;99.90;;;;;;4964258;28;20614;-66
2021/10/23 04:55:45;;;;;;;6.47;1.50;;;8.10;99.90;;;;;;4948701;28;20626;-66
2021/10/23 04:58:11;;;;;;;6.00;1.80;;;8.10;99.90;;;;;;4958444;28;20229;-65
2021/10/23 05:00:36;;;;;;;6.00;1.63;;;8.10;99.90;;;;;;4964500;28;20654;-66
2021/10/23 05:03:02;;;;;;;5.37;1.87;;;8.10;99.90;;;;;;4962044;28;20721;-66
2021/10/23 05:05:30;;;;;;;7.23;1.90;;;8.10;99.90;;;;;;4964424;28;20302;-65
2021/10/23 05:07:58;;;;;;;4.60;1.73;;;8.10;99.90;;;;;;4940997;28;20219;-66
2021/10/23 05:10:23;;;;;;;5.50;1.90;;;8.00;99.90;;;;;;4963208;28;20646;-66
2021/10/23 05:12:49;;;;;;;3.20;1.47;;;8.00;99.90;;;;;;4964626;28;20633;-66
2021/10/23 05:15:15;;;;;;;6.27;1.90;;;8.00;99.90;;;;;;4959587;28;20202;-66
2021/10/23 05:17:42;;;;;;;5.70;2.00;;;8.10;99.90;;;;;;4966753;28;20199;-65
2021/10/23 05:20:13;;;;;;;5.43;1.73;;;8.00;99.90;;;;;;4961646;28;20563;-65
2021/10/23 05:22:42;;;;;;;4.73;1.47;;;8.10;99.90;;;;;;4965782;28;20606;-67
2021/10/23 05:25:11;;;;;;;4.07;1.43;;;8.00;99.90;;;;;;4968256;28;20679;-67
2021/10/23 05:27:39;;;;;;;4.30;2.03;;;8.00;99.90;;;;;;4964737;28;21197;-66
2021/10/23 05:30:05;;;;;;;6.90;1.90;;;8.10;99.90;;;;;;4943122;28;20622;-65
2021/10/23 05:32:33;;;;;;;3.17;1.20;;;8.10;99.90;;;;;;4967915;28;20661;-66
2021/10/23 05:35:07;;;;;;;3.43;1.23;;;8.10;99.90;;;;;;4967300;28;20614;-66
2021/10/23 05:37:35;;;;;;;5.13;1.90;;;8.00;99.90;;;;;;4968895;28;20626;-66
2021/10/23 05:40:01;;;;;;;6.60;1.43;;;8.00;99.90;;;;;;4968179;28;20630;-68
2021/10/23 05:42:27;;;;;;;5.73;1.37;;;8.00;99.90;;;;;;4957083;28;20628;-67
2021/10/23 05:44:58;;;;;;;4.00;1.50;;;8.00;99.90;;;;;;4965371;28;20621;-66
2021/10/23 05:47:23;;;;;;;7.73;1.83;;;8.00;99.90;;;;;;4964209;28;20195;-66
2021/10/23 05:49:49;;;;;;;2.47;1.30;;;8.00;99.90;;;;;;4958633;28;21170;-66
2021/10/23 05:52:17;;;;;;;7.60;1.80;;;7.90;99.90;;;;;;4968988;28;20227;-66
2021/10/23 05:54:43;;;;;;;4.40;1.60;;;7.90;99.90;;;;;;4968947;28;20321;-66
2021/10/23 05:57:12;;;;;;;6.50;2.53;;;8.00;99.90;;;;;;4967079;28;21067;-67
2021/10/23 05:59:43;;;;;;;4.83;2.00;;;7.90;99.90;;;;;;4967669;28;20218;-66
2021/10/23 06:02:25;;;;;;;7.70;2.00;;;7.90;99.90;;;;;;4961637;28;20634;-67
2021/10/23 06:04:56;;;;;;;3.43;1.87;;;7.90;99.90;;;;;;4964456;28;20618;-67
2021/10/23 06:07:25;;;;;;;3.70;1.50;;;7.90;99.90;;;;;;4963177;28;20653;-67
2021/10/23 06:09:55;;;;;;;2.63;1.70;;;7.90;99.90;;;;;;4959950;28;21287;-66
2021/10/23 06:12:25;;;;;;;4.17;1.40;;;7.90;99.90;;;;;;4966738;28;20606;-67
2021/10/23 06:14:57;;;;;;;7.50;4.30;;;7.90;99.90;;;;;;4967857;28;20618;-67
2021/10/23 06:17:25;;;;;;;2.97;1.33;;;7.90;99.90;;;;;;4961867;28;20597;-67
2021/10/23 06:19:51;;;;;;;5.17;1.53;;;7.90;99.90;;;;;;4958278;28;20670;-66
2021/10/23 06:22:20;;;;;;;5.80;1.53;;;7.90;99.90;;;;;;4960698;28;20611;-66
2021/10/23 06:24:47;;;;;;;3.80;1.40;;;7.90;99.90;;;;;;4967768;28;20195;-67
2021/10/23 06:27:16;;;;;;;4.10;1.60;;;7.90;99.90;;;;;;4965650;28;21269;-67
2021/10/23 06:29:49;;;;;;;3.60;1.70;;;7.90;99.90;;;;;;4966396;28;20650;-67
2021/10/23 06:32:17;;;;;;;5.87;1.77;;;7.90;99.90;;;;;;4964765;28;20704;-67
2021/10/23 06:34:45;;;;;;;6.57;1.80;;;7.90;99.90;;;;;;4967067;28;21206;-67
2021/10/23 06:37:18;;;;;;;7.53;1.90;;;7.90;99.90;;;;;;4968611;28;20608;-68
2021/10/23 06:39:50;;;;;;;4.50;1.83;;;8.00;99.90;;;;;;4968753;28;20642;-67
2021/10/23 06:42:17;;;;;;;5.07;1.83;;;8.00;99.90;;;;;;4966800;28;20666;-67
2021/10/23 06:44:45;;;;;;;3.80;1.80;;;8.00;99.90;;;;;;4966815;28;20629;-67
2021/10/23 06:47:13;;;;;;;5.73;1.93;;;8.00;99.90;;;;;;4968374;28;20973;-66
2021/10/23 06:49:41;;;;;;;5.50;2.00;;;8.10;99.90;;;;;;4948806;28;20653;-66
2021/10/23 06:52:06;;;;;;;4.40;1.83;;;8.10;99.90;;;;;;4959357;28;20677;-65
2021/10/23 06:54:35;;;;;;;5.13;2.63;;;8.20;99.90;;;;;;4940805;28;20652;-67
2021/10/23 06:57:05;;;;;;;4.43;1.90;;;8.20;99.90;;;;;;4958621;28;20203;-67
2021/10/23 06:59:31;;;;;;;3.60;1.73;;;8.30;99.90;;;;;;4965327;28;21221;-67
2021/10/23 07:01:56;;;;;;;5.70;2.10;;;8.30;99.90;;;;;;4963555;28;20634;-67
2021/10/23 07:04:24;;;;;;;4.50;1.57;;;8.40;99.90;;;;;;4965479;28;20206;-67
2021/10/23 07:06:50;;;;;;;10.23;2.07;;;8.40;99.90;;;;;;4968787;28;20223;-67
2021/10/23 07:09:17;;;;;;;3.70;1.50;;;8.40;99.90;;;;;;4969070;28;20665;-67
2021/10/23 07:11:43;;;;;;;7.90;2.13;;;8.50;99.90;;;;;;4967365;28;20431;-69
2021/10/23 07:14:14;;;;;;;9.40;2.50;;;8.50;99.90;;;;;;4967855;28;20709;-67
2021/10/23 07:16:42;;;;;;;4.47;1.77;;;8.50;99.90;;;;;;4946731;28;20210;-67
2021/10/23 07:19:08;;;;;;;5.60;3.13;;;8.50;99.90;;;;;;4961573;28;20653;-69
2021/10/23 07:21:35;;;;;;;7.03;1.77;;;8.50;99.90;;;;;;4960195;28;20638;-69
2021/10/23 07:24:06;;;;;;;4.33;1.60;;;8.50;99.90;;;;;;4967008;28;20242;-67
2021/10/23 07:26:32;;;;;;;4.30;1.43;;;8.60;99.90;;;;;;4966227;28;20653;-67
2021/10/23 07:28:58;;;;;;;5.40;1.90;;;8.60;99.90;;;;;;4972023;28;20642;-67
2021/10/23 07:31:29;;;;;;;5.53;1.83;;;8.70;99.90;;;;;;4973767;28;20637;-67
2021/10/23 07:33:57;;;;;;;6.80;2.00;;;8.70;99.90;;;;;;4960964;28;20202;-66
2021/10/23 07:36:23;;;;;;;5.90;1.90;;;8.70;99.90;;;;;;4966671;28;20700;-66
2021/10/23 07:38:49;;;;;;;3.17;1.70;;;8.70;99.90;;;;;;4966553;28;20689;-67
2021/10/23 07:41:15;;;;;;;5.93;2.27;;;8.70;99.90;;;;;;4965338;28;20714;-67
2021/10/23 07:43:43;;;;;;;6.13;2.20;;;8.70;99.90;;;;;;4949289;28;20199;-67
2021/10/23 07:46:09;;;;;;;8.37;2.07;;;8.70;99.90;;;;;;4964622;28;21238;-67
2021/10/23 07:48:37;;;;;;;5.60;1.90;;;8.80;99.90;;;;;;4945994;28;20654;-67
2021/10/23 07:51:09;;;;;;;4.83;1.97;;;8.80;99.90;;;;;;4966153;28;20254;-67
2021/10/23 07:53:35;;;;;;;5.87;1.77;;;8.80;99.90;;;;;;4963933;28;20605;-67
2021/10/23 07:56:08;;;;;;;3.90;1.80;;;8.90;99.90;;;;;;4963886;28;20748;-67
2021/10/23 07:58:34;;;;;;;5.37;1.77;;;8.90;99.90;;;;;;4966587;28;20641;-67
2021/10/23 08:01:03;;;;;;;7.13;2.03;;;9.00;99.90;;;;;;4960185;28;20646;-67
2021/10/23 08:03:29;;;;;;;4.33;1.80;;;9.00;99.90;;;;;;4966621;28;21185;-67
2021/10/23 08:05:54;;;;;;;5.67;1.93;;;9.00;99.90;;;;;;4965889;28;20685;-67
2021/10/23 08:08:20;;;;;;;7.80;1.77;;;9.10;99.90;;;;;;4965255;28;20218;-66
2021/10/23 08:10:50;;;;;;;3.73;1.80;;;9.10;99.90;;;;;;4951987;28;20691;-67
2021/10/23 08:20:13;;;;;;;5.37;2.17;;;9.30;99.90;;;;;;4944137;23;20710;-66
2021/10/23 08:25:16;;;;;;;5.57;1.80;;;9.40;99.90;;;;;;4995781;28;20779;-67
2021/10/23 08:27:43;;;;;;;4.03;1.73;;;9.40;99.90;;;;;;4997822;28;20679;-66
2021/10/23 08:30:15;;;;;;;4.03;1.90;;;9.40;99.90;;;;;;5000050;28;20723;-66
2021/10/23 08:32:42;;;;;;;4.33;1.80;;;9.50;99.90;;;;;;4995095;28;21226;-66
2021/10/23 08:35:20;;;;;;;5.63;1.80;;;9.50;99.90;;;;;;4993518;28;20657;-66
2021/10/23 08:37:51;;;;;;;3.97;1.73;;;9.50;99.90;;;;;;4996098;28;20623;-66
2021/10/23 08:40:20;;;;;;;6.50;2.30;;;9.60;99.90;;;;;;4996196;28;20636;-66
2021/10/23 08:42:51;;;;;;;6.03;2.10;;;9.60;99.90;;;;;;4994652;28;20802;-65
2021/10/23 08:45:17;;;;;;;3.53;1.43;;;9.70;99.90;;;;;;4994626;28;20732;-66
2021/10/23 08:47:44;;;;;;;5.20;1.93;;;9.70;99.90;;;;;;4997430;28;21191;-66
2021/10/23 08:50:13;;;;;;;3.53;1.80;;;9.80;99.90;;;;;;4994598;28;20631;-66
2021/10/23 08:52:39;;;;;;;8.60;2.63;;;9.80;99.90;;;;;;4996605;28;20633;-65
2021/10/23 08:55:07;;;;;;;7.20;1.90;;;9.80;99.90;;;;;;4995963;28;20652;-66
2021/10/23 08:57:35;;;;;;;6.97;2.73;;;9.90;99.90;;;;;;4996585;28;20670;-65
2021/10/23 09:00:02;;;;;;;2.97;1.70;;;9.90;99.90;;;;;;4999494;28;20658;-66
2021/10/23 09:02:30;;;;;;;4.63;1.80;;;9.90;99.90;;;;;;5000713;28;20672;-66
2021/10/23 09:04:56;;;;;;;4.57;1.50;;;10.00;99.90;;;;;;4997118;28;20617;-66
2021/10/23 09:07:23;;;;;;;4.37;1.47;;;10.00;99.90;;;;;;5001065;28;20609;-66
2021/10/23 09:09:52;;;;;;;5.47;1.93;;;10.00;99.90;;;;;;5001139;28;21058;-66
2021/10/23 09:12:40;;;;;;;4.60;1.77;;;10.10;99.90;;;;;;5002161;28;21227;-66
2021/10/23 09:15:16;;;;;;;5.30;1.70;;;10.10;99.90;;;;;;4983536;28;20623;-65
2021/10/23 09:18:08;;;;;;;2.90;1.47;;;10.10;99.90;;;;;;4992682;28;20600;-66
2021/10/23 09:20:49;;;;;;;5.10;2.03;;;10.20;99.90;;;;;;4990762;28;20636;-66
2021/10/23 09:23:21;;;;;;;5.57;1.73;;;10.20;99.90;;;;;;4995268;28;20667;-66
2021/10/23 09:25:49;;;;;;;2.90;1.53;;;10.40;99.90;;;;;;4997294;28;20615;-66
2021/10/23 09:28:27;;;;;;;3.63;1.50;;;10.40;99.90;;;;;;4991924;28;20711;-66
2021/10/23 09:30:56;;;;;;;5.53;2.43;;;10.50;99.90;;;;;;4993358;28;20645;-66
2021/10/23 09:33:25;;;;;;;4.37;1.90;;;10.60;99.90;;;;;;4994695;28;20632;-67
2021/10/23 09:36:00;;;;;;;5.60;1.83;;;10.60;99.90;;;;;;4998201;28;20620;-67
2021/10/23 09:38:30;;;;;;;5.47;1.87;;;10.70;99.90;;;;;;4999312;28;21180;-66
2021/10/23 09:41:14;;;;;;;6.30;2.00;;;10.70;99.90;;;;;;4995106;28;21021;-66
2021/10/23 09:43:41;;;;;;;6.47;2.17;;;10.70;99.90;;;;;;4991775;28;20692;-67
2021/10/23 09:46:11;;;;;;;5.27;1.90;;;10.80;99.90;;;;;;4995738;28;21044;-69
2021/10/23 09:48:42;;;;;;;8.00;2.03;;;10.80;99.90;;;;;;4994416;28;20601;-69
2021/10/23 09:51:26;;;;;;;6.10;2.03;;;11.00;99.90;;;;;;4974013;28;20964;-66
2021/10/23 09:53:53;;;;;;;5.13;2.00;;;11.00;99.90;;;;;;4988603;28;20794;-67
2021/10/23 09:56:30;;;;;;;2.67;1.30;;;11.00;99.90;;;;;;4993415;28;20984;-67
2021/10/23 09:58:55;;;;;;;5.20;1.90;;;11.10;99.90;;;;;;4975258;28;20639;-68
2021/10/23 10:01:33;;;;;;;4.37;1.80;;;11.20;99.90;;;;;;4995101;28;20645;-68
2021/10/23 10:04:12;;;;;;;8.33;1.60;;;11.20;99.90;;;;;;4992841;28;20236;-68
2021/10/23 10:06:42;;;;;;;5.17;1.50;;;11.30;99.90;;;;;;4989555;28;20688;-69
2021/10/23 10:09:18;;;;;;;7.33;1.70;;;11.50;99.90;;;;;;4977645;28;21200;-68
2021/10/23 10:11:53;;;;;;;4.73;1.70;;;11.60;99.90;;;;;;4993242;28;20620;-68
2021/10/23 10:14:28;;;;;;;5.30;1.57;;;11.80;99.90;;;;;;4975596;28;21645;-67
2021/10/23 10:16:58;;;;;;;6.20;1.90;;;11.90;99.90;;;;;;4981100;28;20608;-69
2021/10/23 10:19:24;;;;;;;6.63;1.70;;;12.00;99.90;;;;;;4970466;28;21081;-68
2021/10/23 10:21:52;;;;;;;4.67;1.67;;;12.00;99.90;;;;;;4977797;28;20744;-68
2021/10/23 10:24:32;;;;;;;3.60;1.83;;;12.10;99.90;;;;;;4996909;28;20224;-70
2021/10/23 10:27:09;;;;;;;6.80;1.77;;;12.00;99.90;;;;;;4991037;28;20685;-68
2021/10/23 10:29:57;;;;;;;3.80;1.83;;;12.00;99.90;;;;;;4991660;28;20601;-68
2021/10/23 10:32:29;;;;;;;5.70;1.60;;;12.00;99.90;;;;;;4990448;28;20751;-69
2021/10/23 10:38:11;;;;;;;3.60;1.23;;;12.00;99.90;;;;;;4993436;28;20635;-68
2021/10/23 10:43:13;;;;;;;5.90;1.70;;;12.10;99.90;;;;;;4995723;28;20644;-67
2021/10/23 10:48:37;;;;;;;4.10;1.70;;;12.30;99.90;;;;;;4985692;28;20619;-66
2021/10/23 10:51:06;;;;;;;5.10;1.50;;;12.40;99.90;;;;;;4991129;28;20672;-67
2021/10/23 10:53:32;;;;;;;3.67;1.93;;;12.50;99.90;;;;;;4976611;28;20648;-67
2021/10/23 10:56:15;;;;;;;5.33;1.40;;;12.70;99.90;;;;;;4996385;28;20616;-69
2021/10/23 10:58:56;;;;;;;4.63;1.57;;;12.80;99.90;;;;;;4993535;28;20624;-67
2021/10/23 11:01:29;;;;;;;3.43;1.47;;;12.90;99.90;;;;;;4982471;28;21523;-67
2021/10/23 11:03:58;;;;;;;5.60;1.37;;;13.00;99.90;;;;;;4979082;28;20681;-67
2021/10/23 11:06:38;;;;;;;6.80;1.90;;;13.10;99.90;;;;;;4993985;28;20654;-67
2021/10/23 11:09:16;;;;;;;2.33;1.20;;;13.30;99.90;;;;;;4998565;28;20605;-67
2021/10/23 11:11:47;;;;;;;2.70;1.43;;;13.20;99.90;;;;;;4983015;28;20692;-67
2021/10/23 11:14:30;;;;;;;4.77;1.70;;;13.20;99.90;;;;;;4979112;28;20644;-67
2021/10/23 11:17:16;;;;;;;5.83;1.60;;;13.10;99.90;;;;;;4975768;28;21017;-66
2021/10/23 11:20:01;;;;;;;4.80;1.80;;;13.00;99.90;;;;;;4975569;28;20620;-67
2021/10/23 11:22:50;;;;;;;5.70;1.53;;;13.00;99.90;;;;;;4975203;28;20637;-67
2021/10/23 11:25:27;;;;;;;4.47;1.83;;;12.90;99.90;;;;;;4974391;28;20696;-67
2021/10/23 11:27:55;;;;;;;4.03;1.33;;;12.90;99.90;;;;;;4974484;28;20626;-66
2021/10/23 11:30:31;;;;;;;6.60;2.00;;;12.90;99.90;;;;;;4979841;28;21295;-66
2021/10/23 11:33:02;;;;;;;2.93;1.60;;;13.20;99.90;;;;;;4993069;28;20675;-67
2021/10/23 11:35:38;;;;;;;5.00;1.73;;;13.50;99.90;;;;;;4997063;28;20677;-66
2021/10/23 11:38:16;;;;;;;6.63;1.50;;;14.10;99.90;;;;;;4993730;28;20644;-67
2021/10/23 11:40:43;;;;;;;3.43;1.20;;;14.90;99.90;;;;;;4993866;28;20635;-67
2021/10/23 11:43:14;;;;;;;4.83;1.50;;;16.30;99.90;;;;;;4996756;28;20893;-67
2021/10/23 11:45:42;;;;;;;2.87;1.50;;;17.60;99.90;;;;;;4998506;28;21175;-67
2021/10/23 11:48:36;;;;;;;3.93;1.57;;;18.90;99.90;;;;;;4989303;28;20669;-66
2021/10/23 11:51:12;;;;;;;;;;;;;;;;;;;;;
2021/10/23 11:53:38;;;;;;;4.10;1.60;;;22.10;99.90;;;;;;4993096;28;20638;-67
2021/10/23 11:56:09;;;;;;;1.13;0.90;;;22.80;99.90;;;;;;4998016;28;21106;-67
2021/10/23 11:58:39;;;;;;;2.80;1.20;;;22.80;99.90;;;;;;4995501;28;20190;-67
2021/10/23 12:01:16;;;;;;;3.30;1.00;;;22.80;99.90;;;;;;4991880;28;20645;-67
2021/10/23 12:03:45;;;;;;;2.83;1.27;;;23.40;99.90;;;;;;4992885;28;20634;-67
2021/10/23 12:06:28;;;;;;;3.27;1.43;;;24.30;99.90;;;;;;4997640;28;20646;-67
2021/10/23 12:08:55;;;;;;;3.40;1.30;;;24.80;99.90;;;;;;4998292;28;20584;-67
2021/10/23 12:11:34;;;;;;;3.23;1.40;;;24.90;99.90;;;;;;4987042;28;20648;-67
2021/10/23 12:13:59;;;;;;;2.23;1.23;;;24.70;99.90;;;;;;4998053;28;20634;-67
2021/10/23 12:16:33;;;;;;;4.20;1.20;;;24.60;99.90;;;;;;4997510;28;22599;-67
2021/10/23 12:19:32;;;;;;;3.43;1.50;;;24.00;99.90;;;;;;4997267;28;20182;-67
2021/10/23 12:22:03;;;;;;;3.97;1.53;;;22.90;99.90;;;;;;4995815;28;21017;-67
2021/10/23 12:24:57;;;;;;;3.57;2.00;;;21.90;99.90;;;;;;4979560;28;21079;-67
2021/10/23 12:27:30;;;;;;;5.00;1.87;;;20.80;99.90;;;;;;4980649;28;20984;-67
2021/10/23 12:30:06;;;;;;;5.00;2.30;;;19.60;99.90;;;;;;4979174;28;20613;-67
2021/10/23 12:32:40;;;;;;;3.23;1.40;;;18.70;99.90;;;;;;4995682;28;20699;-67
2021/10/23 12:35:22;;;;;;;2.90;1.77;;;17.90;99.90;;;;;;4996931;28;20611;-67
2021/10/23 12:37:58;;;;;;;5.87;1.57;;;17.30;99.90;;;;;;4989152;28;20723;-67
2021/10/23 12:40:43;;;;;;;4.40;1.63;;;16.70;99.90;;;;;;5000995;28;20697;-67
2021/10/23 12:43:09;;;;;;;4.37;3.47;;;16.30;99.90;;;;;;4997967;28;20628;-67
2021/10/23 12:45:44;;;;;;;6.07;4.20;;;15.80;99.90;;;;;;5000727;28;20690;-67
2021/10/23 12:48:16;;;;;;;6.00;5.40;;;15.50;99.90;;;;;;4998737;28;20572;-66
2021/10/23 12:50:50;;;;;;;8.20;6.80;;;15.20;99.90;;;;;;5001454;28;22787;-66
2021/10/23 12:53:16;;;;;;;3.83;2.77;;;14.90;99.90;;;;;;4999793;28;20999;-67
2021/10/23 12:55:42;;;;;;;3.40;3.10;;;14.70;99.90;;;;;;4990215;28;20621;-66
2021/10/23 12:58:09;;;;;;;6.20;3.10;;;14.50;99.90;;;;;;4999722;28;20609;-66
2021/10/23 13:00:46;;;;;;;33.67;30.73;;;14.30;99.90;;;;;;4999317;28;20671;-68
2021/10/23 13:03:16;;;;;;;8.87;7.93;;;14.20;99.90;;;;;;4990427;28;20712;-68
2021/10/23 13:05:42;;;;;;;6.17;4.30;;;14.10;99.90;;;;;;4980315;28;21024;-68
2021/10/23 13:08:07;;;;;;;5.77;3.80;;;14.10;99.90;;;;;;5000313;28;20615;-68
2021/10/23 13:10:33;;;;;;;8.17;4.10;;;14.80;99.90;;;;;;5001229;28;20300;-65
2021/10/23 13:13:01;;;;;;;3.90;3.10;;;16.20;99.90;;;;;;4996552;28;20232;-66
2021/10/23 13:15:29;;;;;;;3.90;2.17;;;17.30;99.90;;;;;;4997731;28;22510;-66
2021/10/23 13:17:55;;;;;;;4.77;2.60;;;17.60;99.90;;;;;;4999712;28;20615;-66
2021/10/23 13:20:21;;;;;;;2.60;2.30;;;18.20;99.90;;;;;;4985298;28;20682;-66
2021/10/23 13:22:47;;;;;;;2.93;2.20;;;18.70;99.90;;;;;;4999973;28;20644;-66
2021/10/23 13:25:16;;;;;;;3.73;2.50;;;18.90;99.90;;;;;;5002700;28;20191;-66
2021/10/23 13:27:42;;;;;;;2.67;2.40;;;18.60;99.90;;;;;;4995688;28;20200;-65
2021/10/23 13:30:09;;;;;;;6.27;1.80;;;18.20;99.90;;;;;;4998234;28;20612;-65